DFUNK EDAZ-EDCJ
Flight info
| Callsign | DFUNK |
|---|---|
| Flight time | N/A |
| Altitude | 12000 |
| Route | DCT KLF DCT LUROS4B/N0174F120 IFR LUROS M725 KOBUS P31 GARKI VFR DCT |
| Aircraft | C208/L-SDFGYR/C |
Departure
| Time | N/A |
|---|---|
| Airport | Schönhagen Airfield (EDAZ) |
Arrival
| Time | 2026-04-29 20:32 |
|---|---|
| Airport | Chemnitz/Jahnsdorf Airfield (EDCJ) |
| Time | Latitude | Longitude | Altitude | Speed | Heading |
|---|---|---|---|---|---|
| 2026-04-29 20:04 | 51.09707 | 13.67961 | 1751 ft | 134 kts | 215° |
| 2026-04-29 20:04 | 51.08973 | 13.67128 | 1822 ft | 121 kts | 189° |
| 2026-04-29 20:04 | 51.08248 | 13.67404 | 1875 ft | 107 kts | 134° |
| 2026-04-29 20:04 | 51.07738 | 13.68231 | 1958 ft | 101 kts | 122° |
| 2026-04-29 20:05 | 51.07483 | 13.69239 | 1980 ft | 101 kts | 83° |
| 2026-04-29 20:05 | 51.07966 | 13.70025 | 1986 ft | 110 kts | 27° |
| 2026-04-29 20:05 | 51.08694 | 13.70532 | 1848 ft | 115 kts | 34° |
| 2026-04-29 20:05 | 51.09332 | 13.71166 | 1701 ft | 104 kts | 40° |
| 2026-04-29 20:06 | 51.09877 | 13.71887 | 1533 ft | 99 kts | 45° |
| 2026-04-29 20:06 | 51.10376 | 13.72576 | 1388 ft | 91 kts | 43° |
| 2026-04-29 20:06 | 51.10854 | 13.73222 | 1241 ft | 89 kts | 45° |
| 2026-04-29 20:06 | 51.11309 | 13.73866 | 1120 ft | 89 kts | 42° |
| 2026-04-29 20:07 | 51.11761 | 13.74483 | 1004 ft | 83 kts | 45° |
| 2026-04-29 20:07 | 51.12201 | 13.75093 | 872 ft | 84 kts | 45° |
| 2026-04-29 20:07 | 51.12634 | 13.75697 | 776 ft | 80 kts | 44° |
| 2026-04-29 20:07 | 51.13026 | 13.76235 | 755 ft | 68 kts | 44° |
| 2026-04-29 20:08 | 51.13388 | 13.76741 | 740 ft | 85 kts | 41° |
| 2026-04-29 20:08 | 51.13552 | 13.76965 | 754 ft | 98 kts | 43° |
| 2026-04-29 20:08 | 51.14471 | 13.78287 | 1158 ft | 113 kts | 47° |
| 2026-04-29 20:08 | 51.14757 | 13.79404 | 1394 ft | 115 kts | 97° |
| 2026-04-29 20:09 | 51.14261 | 13.80366 | 1620 ft | 123 kts | 156° |
| 2026-04-29 20:09 | 51.13397 | 13.80167 | 1732 ft | 136 kts | 206° |
| 2026-04-29 20:09 | 51.12620 | 13.79271 | 1747 ft | 138 kts | 212° |
| 2026-04-29 20:09 | 51.11784 | 13.78697 | 1799 ft | 127 kts | 178° |
| 2026-04-29 20:10 | 51.11214 | 13.78728 | 1846 ft | 123 kts | 168° |
| 2026-04-29 20:10 | 51.10359 | 13.78866 | 1903 ft | 123 kts | 167° |
| 2026-04-29 20:10 | 51.09514 | 13.79025 | 1945 ft | 125 kts | 166° |
| 2026-04-29 20:10 | 51.08642 | 13.79270 | 1889 ft | 127 kts | 161° |
| 2026-04-29 20:11 | 51.07796 | 13.79623 | 1904 ft | 125 kts | 156° |
| 2026-04-29 20:11 | 51.06979 | 13.80080 | 1905 ft | 124 kts | 154° |
| 2026-04-29 20:11 | 51.06173 | 13.80558 | 1928 ft | 123 kts | 153° |
| 2026-04-29 20:11 | 51.05385 | 13.81069 | 1935 ft | 123 kts | 152° |
| 2026-04-29 20:12 | 51.04598 | 13.81637 | 1907 ft | 125 kts | 148° |
| 2026-04-29 20:12 | 51.03817 | 13.82257 | 1882 ft | 126 kts | 150° |
| 2026-04-29 20:12 | 51.02924 | 13.82458 | 1831 ft | 135 kts | 180° |
| 2026-04-29 20:12 | 51.02020 | 13.82060 | 1883 ft | 135 kts | 196° |
| 2026-04-29 20:13 | 51.01172 | 13.81387 | 1873 ft | 139 kts | 206° |
| 2026-04-29 20:13 | 51.00362 | 13.80522 | 1875 ft | 140 kts | 211° |
| 2026-04-29 20:13 | 50.99580 | 13.79641 | 1929 ft | 137 kts | 210° |
| 2026-04-29 20:13 | 50.98838 | 13.78683 | 1928 ft | 136 kts | 224° |
| 2026-04-29 20:14 | 50.98246 | 13.77541 | 2040 ft | 133 kts | 231° |
| 2026-04-29 20:14 | 50.97769 | 13.76251 | 2082 ft | 136 kts | 243° |
| 2026-04-29 20:14 | 50.97448 | 13.74884 | 2316 ft | 132 kts | 249° |
| 2026-04-29 20:14 | 50.97179 | 13.73478 | 2568 ft | 133 kts | 251° |
| 2026-04-29 20:15 | 50.96873 | 13.72060 | 2838 ft | 138 kts | 248° |
| 2026-04-29 20:15 | 50.96532 | 13.70602 | 3081 ft | 144 kts | 248° |
| 2026-04-29 20:15 | 50.96176 | 13.69138 | 3417 ft | 136 kts | 246° |
| 2026-04-29 20:15 | 50.95814 | 13.67681 | 3507 ft | 154 kts | 247° |
| 2026-04-29 20:16 | 50.95418 | 13.66054 | 3511 ft | 166 kts | 246° |
| 2026-04-29 20:16 | 50.94989 | 13.64311 | 3509 ft | 172 kts | 246° |
| 2026-04-29 20:16 | 50.94543 | 13.62509 | 3506 ft | 174 kts | 247° |
| 2026-04-29 20:16 | 50.94100 | 13.60729 | 3505 ft | 175 kts | 246° |
| 2026-04-29 20:17 | 50.93663 | 13.58959 | 3503 ft | 174 kts | 247° |
| 2026-04-29 20:17 | 50.93216 | 13.57153 | 3502 ft | 174 kts | 246° |
| 2026-04-29 20:17 | 50.92776 | 13.55374 | 3383 ft | 181 kts | 246° |
| 2026-04-29 20:17 | 50.92308 | 13.53490 | 3155 ft | 186 kts | 246° |
| 2026-04-29 20:18 | 50.91829 | 13.51574 | 2920 ft | 188 kts | 246° |
| 2026-04-29 20:18 | 50.91350 | 13.49666 | 2661 ft | 185 kts | 247° |
| 2026-04-29 20:18 | 50.90884 | 13.47783 | 2501 ft | 179 kts | 247° |
| 2026-04-29 20:18 | 50.90464 | 13.46049 | 2764 ft | 159 kts | 247° |
| 2026-04-29 20:19 | 50.90070 | 13.44470 | 3064 ft | 150 kts | 246° |
| 2026-04-29 20:19 | 50.89692 | 13.42955 | 3367 ft | 146 kts | 246° |
| 2026-04-29 20:19 | 50.89320 | 13.41460 | 3669 ft | 145 kts | 246° |
| 2026-04-29 20:19 | 50.88961 | 13.40022 | 3965 ft | 141 kts | 245° |
| 2026-04-29 20:20 | 50.88590 | 13.38549 | 4262 ft | 141 kts | 246° |
| 2026-04-29 20:20 | 50.88218 | 13.37057 | 4472 ft | 149 kts | 247° |
| 2026-04-29 20:20 | 50.87819 | 13.35451 | 4495 ft | 163 kts | 247° |
| 2026-04-29 20:20 | 50.87392 | 13.33738 | 4498 ft | 171 kts | 247° |
| 2026-04-29 20:21 | 50.86950 | 13.31976 | 4499 ft | 173 kts | 246° |
| 2026-04-29 20:21 | 50.86505 | 13.30203 | 4502 ft | 174 kts | 247° |
| 2026-04-29 20:21 | 50.86064 | 13.28443 | 4503 ft | 174 kts | 247° |
| 2026-04-29 20:21 | 50.85609 | 13.26634 | 4497 ft | 176 kts | 247° |
| 2026-04-29 20:22 | 50.85165 | 13.24851 | 4498 ft | 176 kts | 246° |
| 2026-04-29 20:22 | 50.84712 | 13.23049 | 4496 ft | 176 kts | 246° |
| 2026-04-29 20:22 | 50.84259 | 13.21259 | 4495 ft | 175 kts | 246° |
| 2026-04-29 20:22 | 50.83808 | 13.19469 | 4496 ft | 175 kts | 246° |
| 2026-04-29 20:23 | 50.83358 | 13.17682 | 4495 ft | 173 kts | 246° |
| 2026-04-29 20:23 | 50.82914 | 13.15923 | 4501 ft | 171 kts | 246° |
| 2026-04-29 20:23 | 50.82477 | 13.14184 | 4495 ft | 168 kts | 245° |
| 2026-04-29 20:23 | 50.82049 | 13.12500 | 4487 ft | 163 kts | 245° |
| 2026-04-29 20:24 | 50.81634 | 13.10860 | 4481 ft | 159 kts | 245° |
| 2026-04-29 20:24 | 50.81224 | 13.09249 | 4480 ft | 158 kts | 245° |
| 2026-04-29 20:24 | 50.80839 | 13.07625 | 4413 ft | 160 kts | 248° |
| 2026-04-29 20:24 | 50.80510 | 13.05914 | 4282 ft | 165 kts | 255° |
| 2026-04-29 20:25 | 50.80344 | 13.04111 | 4088 ft | 164 kts | 264° |
| 2026-04-29 20:25 | 50.80276 | 13.02358 | 4000 ft | 154 kts | 266° |
| 2026-04-29 20:25 | 50.80181 | 13.00703 | 3958 ft | 150 kts | 257° |
| 2026-04-29 20:25 | 50.79881 | 12.99108 | 3763 ft | 153 kts | 246° |
| 2026-04-29 20:26 | 50.79501 | 12.97534 | 3610 ft | 154 kts | 244° |
| 2026-04-29 20:26 | 50.79100 | 12.95943 | 3387 ft | 157 kts | 244° |
| 2026-04-29 20:26 | 50.78704 | 12.94343 | 3193 ft | 157 kts | 247° |
| 2026-04-29 20:26 | 50.78345 | 12.92714 | 2927 ft | 156 kts | 248° |
| 2026-04-29 20:27 | 50.78014 | 12.91181 | 2707 ft | 140 kts | 249° |
| 2026-04-29 20:27 | 50.77800 | 12.90246 | 2580 ft | 133 kts | 248° |
| 2026-04-29 20:27 | 50.77367 | 12.88476 | 2289 ft | 129 kts | 246° |
| 2026-04-29 20:27 | 50.77026 | 12.87166 | 2106 ft | 125 kts | 246° |
| 2026-04-29 20:28 | 50.76696 | 12.85934 | 1950 ft | 122 kts | 246° |
| 2026-04-29 20:28 | 50.76370 | 12.84711 | 1843 ft | 119 kts | 246° |
| 2026-04-29 20:28 | 50.76063 | 12.83471 | 1827 ft | 121 kts | 250° |
| 2026-04-29 20:28 | 50.75866 | 12.82240 | 1982 ft | 107 kts | 256° |
| 2026-04-29 20:29 | 50.75697 | 12.81152 | 2136 ft | 94 kts | 256° |
| 2026-04-29 20:29 | 50.75555 | 12.80204 | 2204 ft | 86 kts | 252° |
| 2026-04-29 20:29 | 50.75386 | 12.79310 | 2262 ft | 85 kts | 248° |
| 2026-04-29 20:29 | 50.75164 | 12.78451 | 2332 ft | 84 kts | 237° |
| 2026-04-29 20:30 | 50.74676 | 12.78051 | 2319 ft | 77 kts | 172° |
| 2026-04-29 20:30 | 50.74229 | 12.78356 | 2343 ft | 68 kts | 136° |
| 2026-04-29 20:30 | 50.73879 | 12.78856 | 2306 ft | 68 kts | 121° |
| 2026-04-29 20:30 | 50.73759 | 12.79577 | 2148 ft | 72 kts | 88° |
| 2026-04-29 20:31 | 50.73838 | 12.80364 | 1942 ft | 76 kts | 74° |
| 2026-04-29 20:31 | 50.74013 | 12.81162 | 1728 ft | 77 kts | 68° |
| 2026-04-29 20:31 | 50.74217 | 12.81903 | 1543 ft | 71 kts | 64° |
| 2026-04-29 20:31 | 50.74426 | 12.82630 | 1366 ft | 73 kts | 62° |
| 2026-04-29 20:32 | 50.74625 | 12.83336 | 1227 ft | 63 kts | 71° |
| 2026-04-29 20:32 | 50.74766 | 12.83819 | 1224 ft | 31 kts | 65° |
| 2026-04-29 20:32 | 50.74848 | 12.84093 | 1219 ft | 28 kts | 65° |
| 2026-04-29 20:32 | 50.74935 | 12.84279 | 1218 ft | 13 kts | 351° |
| 2026-04-29 20:33 | 50.74977 | 12.84218 | 1220 ft | 13 kts | 250° |
| 2026-04-29 20:33 | 50.74932 | 12.84055 | 1217 ft | 19 kts | 244° |
| 2026-04-29 20:33 | 50.74878 | 12.83872 | 1219 ft | 17 kts | 245° |
| 2026-04-29 20:33 | 50.74828 | 12.83699 | 1221 ft | 19 kts | 245° |
| 2026-04-29 20:34 | 50.74772 | 12.83513 | 1224 ft | 14 kts | 245° |
| 2026-04-29 20:34 | 50.74793 | 12.83426 | 1221 ft | 8 kts | 313° |
| 2026-04-29 20:34 | 50.74790 | 12.83373 | 1221 ft | 2 kts | 240° |
| 2026-04-29 20:34 | 50.74788 | 12.83367 | 1221 ft | 0 kts | 240° |
| 2026-04-29 20:35 | 50.74773 | 12.83296 | 1222 ft | 4 kts | 251° |
| 2026-04-29 20:35 | 50.74759 | 12.83245 | 1223 ft | 5 kts | 221° |
| 2026-04-29 20:35 | 50.74743 | 12.83252 | 1224 ft | 0 kts | 157° |
| 2026-04-29 20:37 | 50.74743 | 12.83251 | 1223 ft | 0 kts | 157° |